MMVR/VER METAR and TAF weather

Enter ICAO airport designator
Station Type Date Time Source
MMVR METAR 2024/02/21 01:46 UTC NOAA

MMVR 210146Z 09004KT 7SM SKC 22/18 A3022


Station Type Date Time Source
MMVR Decoded METAR 2024/02/21 01:46 UTC NOAA

Veracruz / Las Bajadas / General Heriberto Jara, Mexico (MMVR) 19-09N 096-11W
Feb 20, 2024 - 08:46 PM EST / 2024.02.21 0146 UTC
Wind: from the E (090 degrees) at 5 MPH (4 KT):0
Visibility: 7 mile(s):0
Sky conditions: clear
Temperature: 71 F (22 C)
Dew Point: 64 F (18 C)
Relative Humidity: 78%
Pressure (altimeter): 30.22 in. Hg (1023 hPa)
ob: MMVR 210146Z 09004KT 7SM SKC 22/18 A3022
cycle: 2

Station Type Date Time Source
MMVR TAF 2024/02/20 18:32 UTC NOAA

TAF MMVR 201725Z 2018/2118 09008KT 6SM HZ SCT010 TX26/2020Z TN16/2112Z
FM202100 09012KT 6SM HZ SCT020
FM210300 09005KT P6SM BKN015
TEMPO 2110/2114 3SM BR BKN010
FM211500 00000KT 4SM HZ SCT010

Example: see airport list